G.commander — DSQR5 — position and weather

sailwx.info

Track history (hours):
 
Tides and Currents Weather Stations Pressure Air Temp Water Temp Dewpoint Dewpoint Depression Visibility Wind Speed Wind Dir Waves Ship Positions

G.commander

Last reported at 2014-Nov-29 00:33 UTC. Time now 2014-Nov-29 08:44 UTC.
Position N 01°11' E 103°40'.

Length 230 m; draft 8.4 m.

Type: Tanker. MMSI: 441681000.

Date/timePositionNaut miles runAvg speedWind from/ knotsBaromVisibWave heightAir tempDewpointWater temp
2014-Nov-29 00:33N 01°11' E 103°40'6 5.9
2014-Nov-28 23:32N 01°09' E 103°46'1111.0
2014-Nov-28 22:33N 01°14' E 103°56'1111.2
2014-Nov-28 21:33N 01°16' E 104°07'1211.5
2014-Nov-28 20:30N 01°18' E 104°19'  
2014-Nov-19 12:18N 33°55' E 134°53'1114.6
2014-Nov-19 11:33N 34°06' E 134°56'1211.6
2014-Nov-19 10:33N 34°17' E 134°59'1312.9
2014-Nov-19 09:33N 34°30' E 135°04'7 7.1
2014-Nov-19 08:33N 34°36' E 135°02'  
Track history (hours):
 
Tides and Currents Weather Stations Pressure Air Temp Water Temp Dewpoint Dewpoint Depression Visibility Wind Speed Wind Dir Waves Ship Positions

G.commander

Last reported at 2014-Nov-29 00:33 UTC. Time now 2014-Nov-29 08:44 UTC.
Position N 01°11' E 103°40'.

Length 230 m; draft 8.4 m.

Type: Tanker. MMSI: 441681000.

Date/timePositionNaut miles runAvg speedWind from/ knotsBaromVisibWave heightAir tempDewpointWater temp
2014-Nov-29 00:33N 01°11' E 103°40'6 5.9
2014-Nov-28 23:32N 01°09' E 103°46'1111.0
2014-Nov-28 22:33N 01°14' E 103°56'1111.2
2014-Nov-28 21:33N 01°16' E 104°07'1211.5
2014-Nov-28 20:30N 01°18' E 104°19'  
2014-Nov-19 12:18N 33°55' E 134°53'1114.6
2014-Nov-19 11:33N 34°06' E 134°56'1211.6
2014-Nov-19 10:33N 34°17' E 134°59'1312.9
2014-Nov-19 09:33N 34°30' E 135°04'7 7.1
2014-Nov-19 08:33N 34°36' E 135°02'  

Dump ship's entire track history